Terminal Aerodrome Forecast
Issued by NWS

Home | Current Version | Previous Version | Text Only | Print | Product List | Glossary On
Versions: 1 2 3 4 5 6 7 8 9 10 11 12 13 14 15
000
FTUS44 KTSA 271142
TAFMLC
TAF
KMLC 271142Z 2712/2812 VRB06KT P6SM BKN012 OVC025
     FM271600 33011G17KT P6SM BKN025
     FM272300 02009KT P6SM BKN035
     FM280400 05005KT P6SM SCT025 BKN200=

USA.gov is the U.S. government's official web portal to all federal, state and local government web resources and services.